Alyeska Resort Wx Sites
Hourly Roundup from Summit Site
ALYSUM 10/30/2014
Click Here to View Graph!

        DATE  TIME   Air  Wind  Wind  Wind   Rel  BATT Solar
                    Temp   Spd   Dir  Gust  Hum%  Volt Watts
                      F   AVG   AVG   MAX   AVG   AVG    M

  10/30/2014 20:00    17     4   291     9    96 13.71  0.00
  10/30/2014 19:00    17     3   150     9    96 14.02  1.27
  10/30/2014 18:00    18     2   154     6    97 14.96 30.40
  10/30/2014 17:00    19     3   305     7    97 15.00122.90
  10/30/2014 16:00    19     5   333    11    97 14.95147.80
  10/30/2014 15:00    20     2   262     6    98 14.91129.30
  10/30/2014 14:00    21     2   263     5    98 14.92133.80
  10/30/2014 13:00    19     3   136     7    99 14.98107.30
  10/30/2014 12:00    20     4   139     8    98 14.89 69.75
  10/30/2014 11:00    21     3   156     7    99 13.48 40.70
  10/30/2014 10:00    22     2   326     7    98 12.77  9.78
  10/30/2014 09:00    22     1   198     3    99 12.73  0.11
  10/30/2014 08:00    22     3   133     7   100 12.76  0.00
  10/30/2014 07:00    24     1     4     7    83 12.80  0.00
  10/30/2014 06:00    26     0   301     4    70 12.83  0.00
  10/30/2014 05:00    26     1   330     4    70 12.85  0.00
  10/30/2014 04:00    27     1   134     4    62 12.87  0.00
  10/30/2014 03:00    28     0     0     0    59 12.88  0.00
  10/30/2014 02:00    28     1   103     4    59 12.89  0.00
  10/30/2014 01:00    28     4    49     8    55 12.90  0.00
  10/29/2014 24:00    28     2    48     6    59 12.93  0.00
  10/29/2014 23:00    28     2    96     6    60 13.02  0.00
  10/29/2014 22:00    27     4    70     8    72 13.17  0.00
  10/29/2014 21:00    27     4    71     8    76 13.38  0.00


Click Here to View Graph!